Aérodrome :
LOGIN :

S'inscrire | Disclaimer

   EN    FR    IT 

 










Légende :    VFR   VFR Marginal   IFR   IFR Intensif   IFR Très Intensif
Visi : 
Plafond : 
>= 8 km
>= 3000ft
5 à 8 km
1000 à 3000 ft
1500m à 5 km
500 à 1000 ft
800 à 1500m
200 à 500 ft
< 800m
< 200 ft
Symboles :   Orages  Brouillard  Fortes neiges  Fortes précipitations  Vent > 20 kt
SIGMETs :   Divers  Orages  Givrage  Turbulence  Onde Orograph.  Cendres Volcan.






- Altitude de l'aérodrome : 686 ft
- Code IATA : URS


UUOK - Vostochny

DERNIER METAR :
  • 210700Z 10001MPS CAVOK 01/M01 Q1023 R12/090060 NOSIG RMK QFE749/0999

METARs EXPIRÉS :
  • 210630Z 10001MPS CAVOK 01/M01 Q1023 R12/090060 NOSIG RMK QFE749/0999
  • 210600Z 16002MPS CAVOK M00/M01 Q1023 R12/090060 NOSIG RMK QFE749/0999
  • 210530Z 14004MPS CAVOK M01/M02 Q1023 R12/090060 NOSIG RMK QFE749/0999
  • 210500Z 14003MPS CAVOK M01/M02 Q1023 R12/090060 NOSIG RMK QFE749/0999
  • 210430Z 15002MPS CAVOK M01/M02 Q1022 R12/090060 NOSIG RMK QFE749/0999

TAF TAF UUOK
Valide du 21 à 06h jusqu'au 21 à 15h UTC


210500Z 2106/2115 14003MPS 9999 BKN033
TEMPO 2106/2112 3100 -SN BKN011



MET'MAP, la Météo Aéronautique d'un coup d'oeil ! - Copyright ORBIFLY Décembre 2007 - Disclaimer

ORBIFLY MET'MAP TEAM :

Programmation & Développement : Alexandra Zaïnal
Sur une idée originale de : Baudouin d'Aumeries
Assistance à la programmation : Marc-Olivier Méhu
Soutien technique & logistique : Manuel Goepfert

Contact : metmap@orbifly.com




SOURCES & CREDITS :

   NOAA